Time;durP1;ratioP1;P1;durP2;ratioP2;P2;SDS_P1;SDS_P2;PMS_P1;PMS_P2;Temp;Humidity;BMP_temperature;BMP_pressure;BME280_temperature;BME280_humidity;BME280_pressure;Samples;Min_cycle;Max_cycle;Signal;HPM_P1;HPM_P2
2022/01/22 00:02:10;;;;;;;14.27;6.13;;;;;;;;;;5065533;28;20028;-55
2022/01/22 00:04:36;;;;;;;15.05;6.10;;;;;;;;;;5065457;28;20866;-51
2022/01/22 00:07:04;;;;;;;19.77;7.82;;;;;;;;;;5065180;28;20371;-51
2022/01/22 00:09:36;;;;;;;17.38;7.35;;;;;;;;;;5065044;28;20028;-51
2022/01/22 00:12:07;;;;;;;16.00;6.25;;;;;;;;;;5065398;28;20818;-51
2022/01/22 00:14:34;;;;;;;11.50;5.63;;;;;;;;;;5065098;28;20083;-51
2022/01/22 00:17:01;;;;;;;11.30;4.80;;;;;;;;;;5065144;28;20032;-51
2022/01/22 00:19:28;;;;;;;15.38;7.32;;;;;;;;;;5065298;28;20424;-50
2022/01/22 00:21:54;;;;;;;10.98;4.97;;;;;;;;;;5064906;28;20024;-51
2022/01/22 00:24:21;;;;;;;13.20;5.50;;;;;;;;;;5066387;28;20062;-51
2022/01/22 00:26:47;;;;;;;13.75;5.25;;;;;;;;;;5065075;28;20152;-51
2022/01/22 00:29:14;;;;;;;12.00;4.85;;;;;;;;;;5064816;28;20079;-52
2022/01/22 00:31:41;;;;;;;11.00;5.18;;;;;;;;;;5065029;28;20505;-50
2022/01/22 00:34:08;;;;;;;9.95;5.25;;;;;;;;;;5063627;28;20560;-51
2022/01/22 00:36:34;;;;;;;14.45;7.45;;;;;;;;;;5064553;28;20082;-53
2022/01/22 00:39:00;;;;;;;17.50;8.73;;;;;;;;;;5064777;28;20624;-52
2022/01/22 00:41:26;;;;;;;15.50;6.97;;;;;;;;;;5064867;28;20070;-52
2022/01/22 00:43:53;;;;;;;19.42;6.70;;;;;;;;;;5064780;28;20462;-51
2022/01/22 00:46:20;;;;;;;15.43;5.45;;;;;;;;;;5064738;28;20016;-51
2022/01/22 00:48:46;;;;;;;12.85;5.80;;;;;;;;;;5064528;28;20392;-51
2022/01/22 00:51:12;;;;;;;15.73;6.32;;;;;;;;;;5064443;28;20029;-53
2022/01/22 00:53:39;;;;;;;12.05;5.22;;;;;;;;;;5064414;28;20044;-52
2022/01/22 00:56:05;;;;;;;14.32;5.20;;;;;;;;;;5064356;28;20027;-51
2022/01/22 00:58:31;;;;;;;13.73;6.18;;;;;;;;;;5064640;28;20037;-52
2022/01/22 01:00:57;;;;;;;12.23;5.80;;;;;;;;;;5064400;28;20371;-53
2022/01/22 01:03:23;;;;;;;16.30;7.03;;;;;;;;;;5064365;28;20036;-53
2022/01/22 01:05:49;;;;;;;15.43;7.35;;;;;;;;;;5066063;28;20487;-51
2022/01/22 01:08:15;;;;;;;17.95;7.22;;;;;;;;;;5065573;28;20032;-51
2022/01/22 01:10:41;;;;;;;11.02;5.82;;;;;;;;;;5063873;28;20028;-52
2022/01/22 01:13:08;;;;;;;11.00;5.57;;;;;;;;;;5063857;28;20128;-50
2022/01/22 01:15:42;;;;;;;13.15;6.82;;;;;;;;;;5063769;28;20808;-50
2022/01/22 01:32:33;;;;;;;15.38;5.55;;;;;;;;;;5094931;28;20173;-53
2022/01/22 01:34:25;;;;;;;14.57;5.35;;;;;;;;;;5090456;28;20051;-53
2022/01/22 01:36:53;;;;;;;10.93;5.20;;;;;;;;;;5094453;28;20420;-52
2022/01/22 01:39:25;;;;;;;10.50;4.68;;;;;;;;;;5094390;28;20429;-52
2022/01/22 01:44:27;;;;;;;9.85;4.60;;;;;;;;;;5094546;28;20114;-51
2022/01/22 01:46:58;;;;;;;15.05;7.60;;;;;;;;;;5094315;28;20024;-53
2022/01/22 01:49:24;;;;;;;12.70;5.22;;;;;;;;;;5094413;28;20544;-53
2022/01/22 01:51:52;;;;;;;10.38;5.78;;;;;;;;;;5094311;28;20047;-52
2022/01/22 01:59:35;;;;;;;10.63;4.72;;;;;;;;;;5094106;28;20435;-52
2022/01/22 02:02:01;;;;;;;10.73;4.90;;;;;;;;;;5094036;28;20473;-52
2022/01/22 02:04:27;;;;;;;8.68;4.05;;;;;;;;;;5094007;28;20024;-51
2022/01/22 02:06:55;;;;;;;12.48;4.40;;;;;;;;;;5093874;28;20300;-52
2022/01/22 02:09:21;;;;;;;11.27;5.05;;;;;;;;;;5094273;28;20043;-52
2022/01/22 02:11:56;;;;;;;11.02;4.20;;;;;;;;;;5093881;28;20107;-52
2022/01/22 02:25:17;;;;;;;11.77;5.88;;;;;;;;;;5094027;28;20038;-51
2022/01/22 02:27:43;;;;;;;11.68;5.13;;;;;;;;;;5093401;28;20024;-51
2022/01/22 02:30:17;;;;;;;9.35;4.55;;;;;;;;;;5093805;28;20032;-51
2022/01/22 02:37:44;;;;;;;9.50;4.30;;;;;;;;;;5093710;28;20374;-52
2022/01/22 02:40:16;;;;;;;8.88;4.30;;;;;;;;;;5092539;28;20020;-52
2022/01/22 02:42:44;;;;;;;17.23;8.02;;;;;;;;;;5093381;28;20058;-52
2022/01/22 02:45:12;;;;;;;15.35;4.80;;;;;;;;;;5093636;28;20020;-52
2022/01/22 02:47:38;;;;;;;11.75;5.13;;;;;;;;;;5093257;28;20020;-52
2022/01/22 02:50:05;;;;;;;11.45;5.45;;;;;;;;;;5093391;28;20027;-51
2022/01/22 02:52:32;;;;;;;18.15;6.35;;;;;;;;;;5093482;28;20058;-51
2022/01/22 02:54:58;;;;;;;12.32;5.45;;;;;;;;;;5093326;28;20032;-52
2022/01/22 02:57:25;;;;;;;11.32;5.35;;;;;;;;;;5093013;28;20036;-52
2022/01/22 02:59:51;;;;;;;11.15;5.07;;;;;;;;;;5093157;28;20036;-52
2022/01/22 03:02:17;;;;;;;11.30;6.30;;;;;;;;;;5093521;28;20103;-53
2022/01/22 03:04:43;;;;;;;10.10;5.13;;;;;;;;;;5093396;28;20028;-53
2022/01/22 03:07:09;;;;;;;13.07;5.43;;;;;;;;;;5093261;28;20020;-53
2022/01/22 03:09:45;;;;;;;11.27;4.88;;;;;;;;;;5093291;28;20512;-52
2022/01/22 03:27:49;;;;;;;20.65;7.63;;;;;;;;;;5070500;28;20032;-53
2022/01/22 03:30:15;;;;;;;20.13;8.15;;;;;;;;;;5070820;28;20090;-53
2022/01/22 03:32:45;;;;;;;20.60;7.88;;;;;;;;;;5070766;28;20132;-52
2022/01/22 03:35:24;;;;;;;23.17;9.70;;;;;;;;;;5070490;28;20478;-52
2022/01/22 03:37:52;;;;;;;18.80;7.10;;;;;;;;;;5070548;28;20371;-52
2022/01/22 03:40:22;;;;;;;10.82;5.55;;;;;;;;;;5070610;28;20470;-52
2022/01/22 03:42:49;;;;;;;9.50;4.75;;;;;;;;;;5070624;28;20048;-52
2022/01/22 03:45:15;;;;;;;12.30;5.72;;;;;;;;;;5070454;28;20072;-52
2022/01/22 03:47:41;;;;;;;18.92;8.23;;;;;;;;;;5070535;28;20033;-52
2022/01/22 03:50:09;;;;;;;10.73;4.90;;;;;;;;;;5070499;28;20151;-52
2022/01/22 03:52:35;;;;;;;13.85;5.28;;;;;;;;;;5093470;28;20389;-53
2022/01/22 03:55:01;;;;;;;11.40;5.85;;;;;;;;;;5096633;28;20035;-53
2022/01/22 03:57:27;;;;;;;13.82;6.18;;;;;;;;;;5096401;28;20553;-52
2022/01/22 03:59:56;;;;;;;10.13;4.65;;;;;;;;;;5096464;28;20024;-52
2022/01/22 04:05:08;;;;;;;11.82;4.60;;;;;;;;;;5096268;28;20039;-52
2022/01/22 04:08:08;;;;;;;10.07;4.38;;;;;;;;;;5096377;28;20020;-51
2022/01/22 04:10:34;;;;;;;15.52;5.32;;;;;;;;;;5096207;28;20028;-51
2022/01/22 04:13:05;;;;;;;20.52;6.53;;;;;;;;;;5096089;28;20024;-53
2022/01/22 04:15:34;;;;;;;16.07;6.53;;;;;;;;;;5096174;28;20028;-54
2022/01/22 04:27:21;;;;;;;17.75;9.85;;;;;;;;;;5096074;28;20043;-52
2022/01/22 04:29:10;;;;;;;13.23;6.55;;;;;;;;;;5090792;28;20056;-51
2022/01/22 04:31:36;;;;;;;16.13;6.95;;;;;;;;;;5095800;28;20043;-52
2022/01/22 04:34:02;;;;;;;12.85;6.40;;;;;;;;;;5095690;28;20030;-52
2022/01/22 04:36:28;;;;;;;10.15;5.95;;;;;;;;;;5096051;28;20016;-51
2022/01/22 04:38:54;;;;;;;17.15;8.43;;;;;;;;;;5095676;28;20024;-52
2022/01/22 04:41:21;;;;;;;12.85;5.82;;;;;;;;;;5095605;28;20564;-52
2022/01/22 04:43:49;;;;;;;9.90;5.10;;;;;;;;;;5095657;28;20089;-52
2022/01/22 04:46:23;;;;;;;10.65;5.57;;;;;;;;;;5095578;28;20028;-52
2022/01/22 04:56:46;;;;;;;12.52;6.70;;;;;;;;;;5095539;28;20458;-52
2022/01/22 04:59:12;;;;;;;10.52;6.28;;;;;;;;;;5095395;28;20107;-52
2022/01/22 05:01:39;;;;;;;9.55;5.30;;;;;;;;;;5095166;28;20024;-51
2022/01/22 05:04:05;;;;;;;14.55;6.30;;;;;;;;;;5094057;28;20028;-52
2022/01/22 05:06:31;;;;;;;10.65;5.43;;;;;;;;;;5095319;28;20478;-51
2022/01/22 05:08:57;;;;;;;11.38;6.10;;;;;;;;;;5095137;28;20020;-52
2022/01/22 05:11:24;;;;;;;14.68;6.93;;;;;;;;;;5095109;28;20031;-51
2022/01/22 05:13:51;;;;;;;12.77;6.10;;;;;;;;;;5094958;28;20024;-52
2022/01/22 05:16:17;;;;;;;18.45;8.57;;;;;;;;;;5094849;28;20031;-52
2022/01/22 05:18:52;;;;;;;8.80;5.20;;;;;;;;;;5094959;28;20106;-51
2022/01/22 05:21:20;;;;;;;13.57;5.35;;;;;;;;;;5093920;28;20373;-50
2022/01/22 05:23:49;;;;;;;13.75;5.68;;;;;;;;;;5094741;28;20367;-51
2022/01/22 05:37:04;;;;;;;13.77;6.97;;;;;;;;;;5094591;28;20056;-51
2022/01/22 05:39:31;;;;;;;13.20;6.45;;;;;;;;;;5094571;28;20020;-52
2022/01/22 05:42:01;;;;;;;15.13;6.68;;;;;;;;;;5093483;28;20028;-51
2022/01/22 05:44:28;;;;;;;12.90;5.60;;;;;;;;;;5094358;28;20389;-52
2022/01/22 05:46:57;;;;;;;15.98;7.10;;;;;;;;;;5094486;28;20020;-51
2022/01/22 05:49:25;;;;;;;11.07;5.15;;;;;;;;;;5094304;28;20028;-51
2022/01/22 05:51:56;;;;;;;11.45;5.38;;;;;;;;;;5094310;28;20561;-51
2022/01/22 05:59:40;;;;;;;16.50;7.93;;;;;;;;;;5094502;28;20497;-51
2022/01/22 06:02:16;;;;;;;22.83;10.13;;;;;;;;;;5093916;28;20020;-51
2022/01/22 06:04:42;;;;;;;27.17;12.15;;;;;;;;;;5093883;28;20047;-51
2022/01/22 06:07:09;;;;;;;26.83;11.93;;;;;;;;;;5094191;28;20435;-50
2022/01/22 06:09:38;;;;;;;34.47;11.32;;;;;;;;;;5093953;28;20077;-50
2022/01/22 06:14:37;;;;;;;39.78;16.00;;;;;;;;;;5093779;28;20085;-50
2022/01/22 06:17:03;;;;;;;42.47;15.65;;;;;;;;;;5093813;28;20509;-51
2022/01/22 06:19:29;;;;;;;35.72;17.02;;;;;;;;;;5094183;28;20048;-51
2022/01/22 06:21:55;;;;;;;27.08;12.95;;;;;;;;;;5094022;28;20073;-51
2022/01/22 06:24:22;;;;;;;21.77;10.77;;;;;;;;;;5093736;28;20065;-51
2022/01/22 06:26:48;;;;;;;20.88;10.20;;;;;;;;;;5093312;28;20028;-51
2022/01/22 06:29:14;;;;;;;16.05;7.07;;;;;;;;;;5093569;28;20536;-52
2022/01/22 06:31:41;;;;;;;20.60;8.90;;;;;;;;;;5093549;28;20535;-52
2022/01/22 06:34:07;;;;;;;15.73;7.93;;;;;;;;;;5093542;28;20024;-51
2022/01/22 06:36:33;;;;;;;22.08;9.93;;;;;;;;;;5092642;28;20390;-52
2022/01/22 06:39:11;;;;;;;23.95;10.07;;;;;;;;;;5093527;28;20027;-53
2022/01/22 06:41:47;;;;;;;24.10;9.85;;;;;;;;;;5093519;28;20066;-52
2022/01/22 06:44:17;;;;;;;17.15;8.07;;;;;;;;;;5093312;28;20036;-52
2022/01/22 06:46:44;;;;;;;26.52;11.23;;;;;;;;;;5093381;28;20020;-52
2022/01/22 06:49:10;;;;;;;27.55;10.70;;;;;;;;;;5093261;28;20024;-51
2022/01/22 06:51:37;;;;;;;21.60;9.38;;;;;;;;;;5093271;28;20485;-52
2022/01/22 06:54:04;;;;;;;38.92;15.07;;;;;;;;;;5093177;28;20024;-52
2022/01/22 06:56:30;;;;;;;19.95;8.68;;;;;;;;;;5092943;28;20489;-52
2022/01/22 06:58:57;;;;;;;21.90;9.60;;;;;;;;;;5093176;28;20506;-53
2022/01/22 07:01:24;;;;;;;22.10;10.02;;;;;;;;;;5093203;28;20051;-53
2022/01/22 07:03:50;;;;;;;27.27;12.32;;;;;;;;;;5093185;28;20028;-53
2022/01/22 07:06:16;;;;;;;28.95;12.90;;;;;;;;;;5093179;28;20527;-53
2022/01/22 07:08:42;;;;;;;25.42;12.52;;;;;;;;;;5093007;28;20115;-52
2022/01/22 07:11:11;;;;;;;26.15;12.98;;;;;;;;;;5093141;28;20046;-51
2022/01/22 07:13:37;;;;;;;26.25;13.77;;;;;;;;;;5093164;28;20027;-51
2022/01/22 07:16:04;;;;;;;24.90;13.30;;;;;;;;;;5092975;28;20027;-52
2022/01/22 07:18:30;;;;;;;25.20;12.82;;;;;;;;;;5093261;28;20028;-51
2022/01/22 07:20:57;;;;;;;27.90;12.85;;;;;;;;;;5093089;28;20434;-51
2022/01/22 07:26:02;;;;;;;22.35;11.70;;;;;;;;;;5093297;28;20043;-52
2022/01/22 07:28:28;;;;;;;27.30;13.55;;;;;;;;;;5096835;28;20055;-52
2022/01/22 07:30:54;;;;;;;24.08;12.52;;;;;;;;;;5096965;28;20020;-51
2022/01/22 07:33:21;;;;;;;31.58;14.25;;;;;;;;;;5097023;28;20119;-52
2022/01/22 07:35:47;;;;;;;32.65;15.60;;;;;;;;;;5096985;28;20123;-51
2022/01/22 07:38:13;;;;;;;27.10;14.00;;;;;;;;;;5096809;28;20024;-51
2022/01/22 07:40:39;;;;;;;24.48;12.20;;;;;;;;;;5097009;28;20032;-51
2022/01/22 07:43:06;;;;;;;28.17;13.25;;;;;;;;;;5096658;28;20028;-52
2022/01/22 07:45:32;;;;;;;24.73;13.63;;;;;;;;;;5096756;28;20406;-51
2022/01/22 07:47:58;;;;;;;27.63;12.50;;;;;;;;;;5096778;28;20023;-51
2022/01/22 07:50:24;;;;;;;23.85;12.30;;;;;;;;;;5096751;28;20032;-52
2022/01/22 07:52:50;;;;;;;21.75;11.43;;;;;;;;;;5096766;28;20016;-51
2022/01/22 07:55:19;;;;;;;25.92;13.18;;;;;;;;;;5096424;28;20501;-51
2022/01/22 07:57:45;;;;;;;31.70;14.65;;;;;;;;;;5096125;28;20466;-53
2022/01/22 08:00:11;;;;;;;33.30;14.98;;;;;;;;;;5096394;28;20363;-51
2022/01/22 08:02:38;;;;;;;31.90;16.77;;;;;;;;;;5096176;28;20051;-51
2022/01/22 08:05:04;;;;;;;50.28;21.58;;;;;;;;;;5096390;28;20114;-52
2022/01/22 08:07:32;;;;;;;55.33;22.63;;;;;;;;;;5096228;28;20372;-52
2022/01/22 08:09:58;;;;;;;47.47;22.23;;;;;;;;;;5096288;28;20103;-51
2022/01/22 08:12:25;;;;;;;48.58;21.63;;;;;;;;;;5096180;28;20027;-52
2022/01/22 08:14:51;;;;;;;34.38;16.40;;;;;;;;;;5096131;28;20063;-52
2022/01/22 08:17:17;;;;;;;44.00;18.20;;;;;;;;;;5096176;28;20513;-51
2022/01/22 08:19:43;;;;;;;48.30;22.25;;;;;;;;;;5096153;28;20044;-52
2022/01/22 08:22:09;;;;;;;54.38;25.23;;;;;;;;;;5096149;28;20098;-51
2022/01/22 08:24:35;;;;;;;53.35;23.27;;;;;;;;;;5095913;28;20082;-51
2022/01/22 08:27:21;;;;;;;32.50;16.25;;;;;;;;;;5095732;28;20027;-51
2022/01/22 08:29:47;;;;;;;37.90;17.45;;;;;;;;;;5095776;28;20052;-54
2022/01/22 08:37:27;;;;;;;44.83;22.52;;;;;;;;;;5095988;28;20043;-53
2022/01/22 08:39:55;;;;;;;53.28;24.38;;;;;;;;;;5095641;28;20024;-50
2022/01/22 08:42:22;;;;;;;58.47;24.17;;;;;;;;;;5095735;28;20031;-53
2022/01/22 08:44:48;;;;;;;39.90;19.40;;;;;;;;;;5095592;28;20111;-52
2022/01/22 08:47:15;;;;;;;59.20;24.75;;;;;;;;;;5095518;28;20020;-52
2022/01/22 08:49:41;;;;;;;55.70;29.23;;;;;;;;;;5095246;28;20024;-53
2022/01/22 08:52:13;;;;;;;77.68;39.50;;;;;;;;;;5095369;28;20512;-52
2022/01/22 08:54:40;;;;;;;54.08;26.20;;;;;;;;;;5094804;28;20036;-53
2022/01/22 08:57:06;;;;;;;56.30;23.83;;;;;;;;;;5095125;28;20110;-49
2022/01/22 08:59:32;;;;;;;41.53;20.13;;;;;;;;;;5095389;28;20063;-50
2022/01/22 09:01:59;;;;;;;64.63;28.48;;;;;;;;;;5095068;28;20480;-50
2022/01/22 09:04:25;;;;;;;59.35;28.45;;;;;;;;;;5095185;28;20071;-51
2022/01/22 09:06:51;;;;;;;59.20;28.10;;;;;;;;;;5095212;28;20430;-51
2022/01/22 09:09:17;;;;;;;58.83;26.77;;;;;;;;;;5095011;28;20024;-50
2022/01/22 09:11:45;;;;;;;106.13;46.03;;;;;;;;;;5095189;28;20020;-52
2022/01/22 09:14:13;;;;;;;48.63;24.02;;;;;;;;;;5095225;28;20020;-50
2022/01/22 09:16:41;;;;;;;38.25;19.30;;;;;;;;;;5094957;28;20512;-48
2022/01/22 09:19:10;;;;;;;34.83;16.98;;;;;;;;;;5095122;28;20031;-50
2022/01/22 09:21:37;;;;;;;34.65;15.85;;;;;;;;;;5094956;28;20031;-50
2022/01/22 09:24:03;;;;;;;26.40;13.32;;;;;;;;;;5094626;28;20040;-51
2022/01/22 09:26:30;;;;;;;25.17;13.55;;;;;;;;;;5094599;28;20031;-47
2022/01/22 09:28:58;;;;;;;22.20;12.60;;;;;;;;;;5094729;28;20063;-50
2022/01/22 09:31:27;;;;;;;52.25;25.75;;;;;;;;;;5094832;28;20499;-48
2022/01/22 09:33:58;;;;;;;34.65;18.58;;;;;;;;;;5094804;28;20504;-51
2022/01/22 09:36:24;;;;;;;29.65;16.02;;;;;;;;;;5094484;28;20035;-50
2022/01/22 09:38:50;;;;;;;26.25;14.20;;;;;;;;;;5094588;28;20020;-50
2022/01/22 09:41:17;;;;;;;33.33;17.90;;;;;;;;;;5094546;28;20123;-49
2022/01/22 09:43:46;;;;;;;33.90;19.63;;;;;;;;;;5094510;28;20020;-50
2022/01/22 09:46:12;;;;;;;36.60;19.35;;;;;;;;;;5094272;28;20024;-48
2022/01/22 09:48:42;;;;;;;26.83;15.63;;;;;;;;;;5093992;28;20031;-50
2022/01/22 09:51:09;;;;;;;33.90;18.98;;;;;;;;;;5094099;28;20052;-48
2022/01/22 09:53:35;;;;;;;30.55;16.70;;;;;;;;;;5094309;28;20489;-49
2022/01/22 09:56:01;;;;;;;33.92;17.98;;;;;;;;;;5093934;28;20027;-50
2022/01/22 09:58:28;;;;;;;32.88;17.60;;;;;;;;;;5094083;28;20144;-52
2022/01/22 10:00:54;;;;;;;30.05;17.15;;;;;;;;;;5094229;28;20080;-52
2022/01/22 10:03:21;;;;;;;34.85;19.10;;;;;;;;;;5093450;28;20031;-49
2022/01/22 10:05:47;;;;;;;28.55;16.20;;;;;;;;;;5093817;28;20032;-51
2022/01/22 10:08:35;;;;;;;42.03;21.85;;;;;;;;;;5093617;28;20492;-51
2022/01/22 10:11:03;;;;;;;32.47;16.90;;;;;;;;;;5090792;28;20473;-51
2022/01/22 10:13:38;;;;;;;26.90;15.80;;;;;;;;;;5093654;28;20033;-50
2022/01/22 10:16:12;;;;;;;35.10;18.95;;;;;;;;;;5093831;28;20056;-50
2022/01/22 10:18:38;;;;;;;31.98;19.25;;;;;;;;;;5093781;28;20024;-50
2022/01/22 10:21:07;;;;;;;25.77;15.88;;;;;;;;;;5093594;28;20077;-50
2022/01/22 10:23:39;;;;;;;41.13;21.40;;;;;;;;;;5093662;28;20055;-50
2022/01/22 10:26:07;;;;;;;74.82;41.38;;;;;;;;;;5093532;28;20473;-48
2022/01/22 10:28:45;;;;;;;42.80;23.50;;;;;;;;;;5093385;28;20052;-48
2022/01/22 10:31:20;;;;;;;31.25;17.58;;;;;;;;;;5093474;28;20480;-51
2022/01/22 10:34:03;;;;;;;33.47;17.95;;;;;;;;;;5093511;28;20043;-50
2022/01/22 10:36:29;;;;;;;28.90;16.10;;;;;;;;;;5093266;28;20024;-51
2022/01/22 10:38:55;;;;;;;29.23;17.00;;;;;;;;;;5093058;28;20115;-49
2022/01/22 10:41:38;;;;;;;27.33;15.50;;;;;;;;;;5092912;28;20484;-50
2022/01/22 10:44:07;;;;;;;28.08;15.20;;;;;;;;;;5090736;28;20043;-50
2022/01/22 10:47:02;;;;;;;25.38;14.05;;;;;;;;;;5092853;28;20028;-49
2022/01/22 10:49:28;;;;;;;28.05;16.27;;;;;;;;;;5091006;28;20141;-50
2022/01/22 10:52:04;;;;;;;22.25;13.18;;;;;;;;;;5092912;28;20020;-50
2022/01/22 10:54:31;;;;;;;35.65;18.70;;;;;;;;;;5091034;28;20071;-50
2022/01/22 10:57:17;;;;;;;36.40;17.38;;;;;;;;;;5092589;28;20481;-51
2022/01/22 10:59:52;;;;;;;44.75;20.88;;;;;;;;;;5090191;28;20051;-50
2022/01/22 11:02:30;;;;;;;30.15;16.08;;;;;;;;;;5086599;28;20158;-50
2022/01/22 11:04:56;;;;;;;27.10;16.10;;;;;;;;;;5068455;28;20048;-49
2022/01/22 11:07:22;;;;;;;42.72;19.95;;;;;;;;;;5068709;28;20077;-49
2022/01/22 11:09:49;;;;;;;39.08;20.60;;;;;;;;;;5068203;28;20020;-48
2022/01/22 11:12:15;;;;;;;40.45;21.40;;;;;;;;;;5068404;28;20142;-47
2022/01/22 11:14:42;;;;;;;29.02;17.17;;;;;;;;;;5068458;28;20094;-48
2022/01/22 11:17:08;;;;;;;29.77;17.48;;;;;;;;;;5068583;28;20439;-49
2022/01/22 11:19:35;;;;;;;28.65;14.70;;;;;;;;;;5068548;28;20020;-49
2022/01/22 11:22:06;;;;;;;40.35;20.52;;;;;;;;;;5068007;28;20044;-50
2022/01/22 11:24:37;;;;;;;26.98;15.65;;;;;;;;;;5068127;28;20036;-51
2022/01/22 11:27:04;;;;;;;18.52;11.38;;;;;;;;;;5068337;28;20020;-50
2022/01/22 11:29:34;;;;;;;26.77;14.60;;;;;;;;;;5068552;28;20052;-50
2022/01/22 11:32:03;;;;;;;42.60;18.15;;;;;;;;;;5068017;28;21041;-48
2022/01/22 11:34:32;;;;;;;51.25;23.92;;;;;;;;;;5068425;28;20028;-50
2022/01/22 11:37:02;;;;;;;42.53;21.25;;;;;;;;;;5068201;28;20038;-49
2022/01/22 11:39:28;;;;;;;67.68;34.88;;;;;;;;;;5068543;28;20024;-50
2022/01/22 11:41:57;;;;;;;39.33;21.13;;;;;;;;;;5068095;28;20134;-49
2022/01/22 11:44:32;;;;;;;54.08;22.35;;;;;;;;;;5068123;28;20885;-48
2022/01/22 11:47:08;;;;;;;52.90;23.20;;;;;;;;;;5067978;28;20020;-50
2022/01/22 11:49:35;;;;;;;62.28;25.40;;;;;;;;;;5068453;28;21419;-49
2022/01/22 11:52:13;;;;;;;70.57;25.98;;;;;;;;;;5068104;28;20081;-49
2022/01/22 11:54:57;;;;;;;43.25;18.85;;;;;;;;;;5067998;28;20049;-50
2022/01/22 11:57:26;;;;;;;36.67;16.85;;;;;;;;;;5067754;28;20573;-50
2022/01/22 12:00:16;;;;;;;35.03;17.63;;;;;;;;;;5067788;28;20032;-49
2022/01/22 12:02:42;;;;;;;34.17;16.17;;;;;;;;;;5067646;28;20052;-49
2022/01/22 12:05:09;;;;;;;33.85;15.93;;;;;;;;;;5067273;28;20040;-50
2022/01/22 12:07:36;;;;;;;33.85;17.52;;;;;;;;;;5067413;28;20635;-49
2022/01/22 12:10:16;;;;;;;38.92;20.63;;;;;;;;;;5067379;28;20031;-48
2022/01/22 12:15:31;;;;;;;43.65;20.50;;;;;;;;;;5071116;28;20094;-51
2022/01/22 12:18:05;;;;;;;98.38;26.65;;;;;;;;;;5070975;28;20028;-45
2022/01/22 12:23:11;;;;;;;56.97;27.10;;;;;;;;;;5070359;28;20017;-46
2022/01/22 12:25:39;;;;;;;61.13;27.75;;;;;;;;;;5070709;28;20413;-45
2022/01/22 12:28:06;;;;;;;51.80;23.85;;;;;;;;;;5093906;28;20390;-49
2022/01/22 12:30:32;;;;;;;38.80;17.88;;;;;;;;;;5096055;28;20036;-50
2022/01/22 12:33:00;;;;;;;28.55;13.65;;;;;;;;;;5095679;28;20093;-48
2022/01/22 12:35:34;;;;;;;31.20;15.60;;;;;;;;;;5095798;28;20081;-50
2022/01/22 12:44:06;;;;;;;42.92;17.95;;;;;;;;;;5033198;28;20026;-49
2022/01/22 12:46:33;;;;;;;41.10;17.75;;;;;;;;;;5033445;28;20392;-50
2022/01/22 12:48:59;;;;;;;23.88;12.35;;;;;;;;;;5033202;28;20045;-47
2022/01/22 12:51:26;;;;;;;24.10;12.77;;;;;;;;;;5033180;28;20037;-50
2022/01/22 12:53:52;;;;;;;41.50;19.70;;;;;;;;;;5033160;28;20036;-49
2022/01/22 12:59:09;;;;;;;28.90;15.07;;;;;;;;;;5033082;28;20030;-50
2022/01/22 13:01:37;;;;;;;33.67;16.00;;;;;;;;;;5033079;28;20112;-50
2022/01/22 13:04:07;;;;;;;28.33;13.80;;;;;;;;;;5032821;28;20446;-49
2022/01/22 13:06:40;;;;;;;20.83;12.02;;;;;;;;;;5032806;28;20025;-49
2022/01/22 13:09:08;;;;;;;23.92;10.73;;;;;;;;;;5032936;28;20442;-49
2022/01/22 13:11:43;;;;;;;20.45;11.27;;;;;;;;;;5032775;28;20065;-49
2022/01/22 13:14:09;;;;;;;16.17;9.30;;;;;;;;;;5032714;28;20039;-49
2022/01/22 13:16:35;;;;;;;19.40;10.05;;;;;;;;;;5032934;28;20104;-49
2022/01/22 13:19:01;;;;;;;21.33;11.68;;;;;;;;;;5032569;28;20531;-49
2022/01/22 13:21:29;;;;;;;23.67;13.35;;;;;;;;;;5091957;28;20044;-54
2022/01/22 13:24:09;;;;;;;29.23;14.98;;;;;;;;;;5094018;28;20020;-50
2022/01/22 13:26:53;;;;;;;33.95;16.73;;;;;;;;;;5095045;28;20351;-49
2022/01/22 13:29:30;;;;;;;34.45;16.02;;;;;;;;;;5094581;28;20063;-50
2022/01/22 13:32:14;;;;;;;34.65;16.77;;;;;;;;;;5094656;28;20024;-49
2022/01/22 13:34:57;;;;;;;35.33;16.38;;;;;;;;;;5094828;28;20389;-49
2022/01/22 13:45:25;;;;;;;36.47;15.55;;;;;;;;;;5094670;28;20172;-49
2022/01/22 13:47:56;;;;;;;37.53;16.05;;;;;;;;;;5094187;28;20115;-50
2022/01/22 13:50:23;;;;;;;43.03;20.10;;;;;;;;;;5094268;28;20028;-50
2022/01/22 13:52:50;;;;;;;36.90;18.88;;;;;;;;;;5094285;28;20023;-49
2022/01/22 13:55:16;;;;;;;35.47;17.75;;;;;;;;;;5094373;28;20028;-50
2022/01/22 13:57:44;;;;;;;26.25;14.45;;;;;;;;;;5094444;28;20330;-50
2022/01/22 14:00:11;;;;;;;15.88;9.77;;;;;;;;;;5093095;28;20040;-52
2022/01/22 14:05:29;;;;;;;20.27;12.18;;;;;;;;;;5093904;28;20043;-50
2022/01/22 14:08:07;;;;;;;19.05;11.80;;;;;;;;;;5094008;28;20465;-50
2022/01/22 14:10:34;;;;;;;19.02;12.02;;;;;;;;;;5092939;28;20379;-51
2022/01/22 14:13:10;;;;;;;28.70;15.93;;;;;;;;;;5093818;28;20017;-51
2022/01/22 14:15:42;;;;;;;137.63;56.42;;;;;;;;;;5093773;28;20099;-52
2022/01/22 14:20:40;;;;;;;40.72;24.02;;;;;;;;;;5093812;28;20020;-50
2022/01/22 14:23:17;;;;;;;20.00;13.93;;;;;;;;;;5094316;28;20367;-50
2022/01/22 14:25:58;;;;;;;18.45;11.50;;;;;;;;;;5093776;28;20035;-50
2022/01/22 14:28:24;;;;;;;;;;;;;;;;;;5093855;28;20048;-48
2022/01/22 14:30:50;;;;;;;19.95;11.10;;;;;;;;;;5093631;28;19931;-51
2022/01/22 14:33:17;;;;;;;19.13;11.07;;;;;;;;;;5093709;28;20040;-50
2022/01/22 14:35:46;;;;;;;18.63;10.98;;;;;;;;;;5093372;28;20050;-50
2022/01/22 14:38:46;;;;;;;16.10;9.43;;;;;;;;;;5093489;28;20032;-51
2022/01/22 14:44:32;;;;;;;17.67;11.35;;;;;;;;;;5093590;28;20039;-50
2022/01/22 14:47:04;;;;;;;18.35;11.95;;;;;;;;;;5093503;28;20024;-49
2022/01/22 14:49:33;;;;;;;20.30;11.77;;;;;;;;;;5093429;28;20020;-50
2022/01/22 14:52:00;;;;;;;22.67;12.55;;;;;;;;;;5093308;28;20051;-52
2022/01/22 14:54:27;;;;;;;24.42;12.07;;;;;;;;;;5093539;28;20468;-51
2022/01/22 14:56:53;;;;;;;24.02;12.75;;;;;;;;;;5093660;28;20055;-51
2022/01/22 14:59:20;;;;;;;31.13;13.32;;;;;;;;;;5093270;28;20525;-51
2022/01/22 15:01:46;;;;;;;34.17;13.30;;;;;;;;;;5093227;28;20028;-50
2022/01/22 15:04:12;;;;;;;29.10;13.13;;;;;;;;;;5092986;28;20116;-49
2022/01/22 15:06:39;;;;;;;31.63;16.13;;;;;;;;;;5093186;28;20081;-51
2022/01/22 15:09:06;;;;;;;31.38;15.70;;;;;;;;;;5093205;28;20111;-50
2022/01/22 15:11:34;;;;;;;26.55;13.70;;;;;;;;;;5093258;28;20048;-51
2022/01/22 15:14:02;;;;;;;24.60;13.55;;;;;;;;;;5093062;28;20047;-50
2022/01/22 15:16:36;;;;;;;23.48;13.90;;;;;;;;;;5093208;28;20362;-50
2022/01/22 15:19:04;;;;;;;28.80;15.95;;;;;;;;;;5093010;28;20025;-49
2022/01/22 15:21:30;;;;;;;31.13;17.60;;;;;;;;;;5093048;28;20502;-50
2022/01/22 15:23:56;;;;;;;30.23;17.05;;;;;;;;;;5093190;28;20029;-49
2022/01/22 15:26:23;;;;;;;29.42;16.58;;;;;;;;;;5093010;28;20156;-49
2022/01/22 15:28:49;;;;;;;24.38;14.73;;;;;;;;;;5091314;28;20048;-49
2022/01/22 15:31:50;;;;;;;22.02;14.18;;;;;;;;;;5088888;28;20103;-49
2022/01/22 15:34:10;;;;;;;28.08;16.58;;;;;;;;;;5089607;28;20078;-50
2022/01/22 15:36:37;;;;;;;26.35;17.00;;;;;;;;;;5092989;28;20032;-51
2022/01/22 15:39:05;;;;;;;27.23;15.95;;;;;;;;;;5092995;28;20051;-51
2022/01/22 15:41:33;;;;;;;27.95;16.65;;;;;;;;;;5092836;28;20447;-50
2022/01/22 15:43:59;;;;;;;30.45;17.42;;;;;;;;;;5093009;28;20074;-50
2022/01/22 15:46:26;;;;;;;27.23;17.13;;;;;;;;;;5093379;28;20026;-51
2022/01/22 15:48:52;;;;;;;26.10;16.73;;;;;;;;;;5094678;28;20027;-47
2022/01/22 15:51:18;;;;;;;26.23;15.65;;;;;;;;;;5095540;28;20104;-52
2022/01/22 15:53:44;;;;;;;27.25;15.93;;;;;;;;;;5095322;28;20462;-50
2022/01/22 15:56:10;;;;;;;33.00;18.20;;;;;;;;;;5095939;28;20051;-52
2022/01/22 15:58:36;;;;;;;31.35;17.60;;;;;;;;;;5096555;28;20068;-52
2022/01/22 16:01:02;;;;;;;31.80;19.65;;;;;;;;;;5095827;28;20020;-53
2022/01/22 16:03:30;;;;;;;41.88;22.55;;;;;;;;;;5095952;28;20140;-51
2022/01/22 16:05:57;;;;;;;43.88;24.75;;;;;;;;;;5095713;28;20174;-51
2022/01/22 16:08:26;;;;;;;47.47;27.13;;;;;;;;;;5095656;28;20386;-52
2022/01/22 16:10:54;;;;;;;52.55;27.85;;;;;;;;;;5095441;28;20033;-49
2022/01/22 16:13:20;;;;;;;48.53;25.08;;;;;;;;;;5095916;28;20016;-52
2022/01/22 16:15:46;;;;;;;44.90;24.48;;;;;;;;;;5095675;28;20482;-50
2022/01/22 16:18:13;;;;;;;35.00;19.75;;;;;;;;;;5094302;28;20439;-49
2022/01/22 16:20:39;;;;;;;38.63;20.70;;;;;;;;;;5095461;28;20085;-50
2022/01/22 16:23:05;;;;;;;39.53;21.13;;;;;;;;;;5095131;28;20438;-51
2022/01/22 16:25:31;;;;;;;38.38;20.65;;;;;;;;;;5095126;28;20046;-51
2022/01/22 16:27:57;;;;;;;40.33;20.58;;;;;;;;;;5094458;28;20074;-50
2022/01/22 16:30:23;;;;;;;42.42;23.20;;;;;;;;;;5095375;28;20036;-51
2022/01/22 16:32:49;;;;;;;49.03;24.42;;;;;;;;;;5095246;28;20044;-50
2022/01/22 16:35:15;;;;;;;47.05;24.45;;;;;;;;;;5095450;28;20402;-50
2022/01/22 16:37:41;;;;;;;47.58;25.58;;;;;;;;;;5095238;28;20017;-53
2022/01/22 16:40:13;;;;;;;51.90;26.98;;;;;;;;;;5095330;28;20024;-52